Time;durP1;ratioP1;P1;durP2;ratioP2;P2;SDS_P1;SDS_P2;PMS_P1;PMS_P2;Temp;Humidity;BMP_temperature;BMP_pressure;BME280_temperature;BME280_humidity;BME280_pressure;Samples;Min_cycle;Max_cycle;Signal;HPM_P1;HPM_P2
2021/01/06 00:00:50;;;;;;;1.60;1.50;;;11.20;80.60;;;;;;5110111;28;20024;-41
2021/01/06 00:03:20;;;;;;;1.55;1.40;;;11.20;80.50;;;;;;5104143;28;20038;-41
2021/01/06 00:05:55;;;;;;;2.13;1.75;;;11.20;80.50;;;;;;5104251;28;20091;-41
2021/01/06 00:08:22;;;;;;;2.17;1.70;;;11.20;80.90;;;;;;5104061;28;20040;-41
2021/01/06 00:10:57;;;;;;;4.60;1.60;;;11.20;81.20;;;;;;5104142;28;20031;-41
2021/01/06 00:13:24;;;;;;;2.28;1.92;;;11.20;81.20;;;;;;5104175;28;20056;-41
2021/01/06 00:15:50;;;;;;;3.22;1.67;;;11.20;81.10;;;;;;5102569;28;20102;-41
2021/01/06 00:18:16;;;;;;;2.28;1.63;;;11.20;81.20;;;;;;5103792;28;20091;-41
2021/01/06 00:20:43;;;;;;;2.42;1.80;;;11.10;81.10;;;;;;5121418;28;20076;-41
2021/01/06 00:23:09;;;;;;;1.77;1.67;;;11.10;81.00;;;;;;5108663;28;20040;-42
2021/01/06 00:25:36;;;;;;;1.97;1.77;;;11.10;80.70;;;;;;5103824;28;20032;-41
2021/01/06 00:28:03;;;;;;;2.25;1.80;;;11.10;80.60;;;;;;5102822;28;20103;-41
2021/01/06 00:30:38;;;;;;;3.05;2.10;;;11.10;80.30;;;;;;5102526;28;20036;-41
2021/01/06 00:33:06;;;;;;;1.98;1.60;;;11.10;79.90;;;;;;5103309;28;20020;-41
2021/01/06 00:35:32;;;;;;;2.10;1.50;;;11.00;79.40;;;;;;5103755;28;20032;-41
2021/01/06 00:37:58;;;;;;;1.88;1.77;;;11.00;79.40;;;;;;5102415;28;20028;-41
2021/01/06 00:40:29;;;;;;;1.70;1.50;;;11.00;79.30;;;;;;5103576;28;20016;-41
2021/01/06 00:42:59;;;;;;;2.40;1.80;;;11.00;79.60;;;;;;5103417;28;20838;-41
2021/01/06 00:45:25;;;;;;;1.95;1.85;;;11.00;79.50;;;;;;5103549;28;20028;-41
2021/01/06 00:47:52;;;;;;;1.88;1.73;;;11.00;79.40;;;;;;5103538;28;20062;-41
2021/01/06 00:50:25;;;;;;;1.92;1.50;;;11.00;79.40;;;;;;5117487;28;20105;-42
2021/01/06 00:52:51;;;;;;;1.88;1.55;;;10.90;79.10;;;;;;5108409;28;20024;-41
2021/01/06 00:55:18;;;;;;;2.20;1.80;;;10.90;79.10;;;;;;5103368;28;20020;-41
2021/01/06 00:57:44;;;;;;;1.98;1.63;;;10.90;79.10;;;;;;5103547;28;20028;-41
2021/01/06 01:00:14;;;;;;;2.00;1.80;;;10.90;79.00;;;;;;5103233;28;20106;-41
2021/01/06 01:02:44;;;;;;;3.38;1.63;;;10.90;79.10;;;;;;5102741;28;20035;-42
2021/01/06 01:05:11;;;;;;;2.05;1.65;;;10.90;79.10;;;;;;5103212;28;20036;-41
2021/01/06 01:07:38;;;;;;;2.40;1.45;;;10.90;79.10;;;;;;5102981;28;20044;-41
2021/01/06 01:10:05;;;;;;;1.65;1.55;;;10.80;78.90;;;;;;5103093;28;20031;-41
2021/01/06 01:12:31;;;;;;;1.80;1.70;;;10.80;78.90;;;;;;5101699;28;20028;-41
2021/01/06 01:14:57;;;;;;;3.63;1.75;;;10.80;78.90;;;;;;5103144;28;20032;-41
2021/01/06 01:17:23;;;;;;;2.17;1.80;;;10.80;78.80;;;;;;5103562;28;20100;-41
2021/01/06 01:19:49;;;;;;;2.00;1.80;;;10.80;79.00;;;;;;5112863;28;20837;-41
2021/01/06 01:22:15;;;;;;;2.40;1.83;;;10.80;78.90;;;;;;5122988;28;20027;-41
2021/01/06 01:24:41;;;;;;;2.05;1.70;;;10.70;78.80;;;;;;5123306;28;20455;-41
2021/01/06 01:27:08;;;;;;;1.88;1.63;;;10.70;78.90;;;;;;5123111;28;20051;-41
2021/01/06 01:29:34;;;;;;;2.90;2.20;;;10.70;78.90;;;;;;5119695;28;20054;-41
2021/01/06 01:32:00;;;;;;;2.65;1.70;;;10.70;79.00;;;;;;5102761;28;20085;-42
2021/01/06 01:34:26;;;;;;;3.50;2.00;;;10.70;79.00;;;;;;5102779;28;20039;-41
2021/01/06 01:36:52;;;;;;;2.97;2.00;;;10.70;79.00;;;;;;5092510;28;20035;-41
2021/01/06 01:39:19;;;;;;;2.80;2.08;;;10.70;79.00;;;;;;5082215;28;20591;-41
2021/01/06 01:41:45;;;;;;;2.07;1.33;;;10.70;79.00;;;;;;5101990;28;20064;-41
2021/01/06 01:44:12;;;;;;;3.17;2.08;;;10.60;79.00;;;;;;5102455;28;20257;-41
2021/01/06 01:46:47;;;;;;;3.10;2.17;;;10.60;79.00;;;;;;5102839;28;20104;-41
2021/01/06 01:49:22;;;;;;;2.38;1.98;;;10.70;79.00;;;;;;5107415;28;20039;-41
2021/01/06 01:52:14;;;;;;;2.47;2.15;;;10.60;79.00;;;;;;5123179;28;20106;-41
2021/01/06 01:54:40;;;;;;;2.20;2.00;;;10.60;79.00;;;;;;5121380;28;20031;-41
2021/01/06 01:57:14;;;;;;;2.55;2.05;;;10.60;79.10;;;;;;5121912;28;20421;-41
2021/01/06 01:59:50;;;;;;;3.28;2.00;;;10.60;79.10;;;;;;5100757;28;20049;-41
2021/01/06 02:02:41;;;;;;;2.65;1.80;;;10.50;79.00;;;;;;5102700;28;20062;-41
2021/01/06 02:05:09;;;;;;;2.20;1.80;;;10.50;79.30;;;;;;5103753;28;20490;-41
2021/01/06 02:07:38;;;;;;;2.28;1.90;;;10.50;79.10;;;;;;5101135;28;20044;-41
2021/01/06 02:10:13;;;;;;;3.38;1.95;;;10.50;79.00;;;;;;5101152;28;20087;-45
2021/01/06 02:13:09;;;;;;;2.78;1.73;;;10.50;79.10;;;;;;5101114;28;20089;-41
2021/01/06 02:15:43;;;;;;;2.25;2.05;;;10.50;79.00;;;;;;5098836;28;20043;-41
2021/01/06 02:18:09;;;;;;;2.63;2.05;;;10.50;79.10;;;;;;5100992;28;20024;-41
2021/01/06 02:20:35;;;;;;;2.63;2.00;;;10.40;79.10;;;;;;5119025;28;20034;-41
2021/01/06 02:23:02;;;;;;;2.17;1.73;;;10.40;79.00;;;;;;5122635;28;20079;-41
2021/01/06 02:25:28;;;;;;;3.65;1.83;;;10.40;79.10;;;;;;5121334;28;20504;-41
2021/01/06 02:27:55;;;;;;;2.90;1.98;;;10.40;79.10;;;;;;5122772;28;20099;-41
2021/01/06 02:30:22;;;;;;;3.20;2.00;;;10.40;79.00;;;;;;5111279;28;20425;-41
2021/01/06 02:32:49;;;;;;;2.10;1.90;;;10.40;79.00;;;;;;5102339;28;20020;-41
2021/01/06 02:35:15;;;;;;;2.40;2.20;;;10.40;79.00;;;;;;5100647;28;20101;-41
2021/01/06 02:37:41;;;;;;;2.10;1.90;;;10.40;79.10;;;;;;5083797;28;20382;-40
2021/01/06 02:40:08;;;;;;;2.42;1.88;;;10.30;79.10;;;;;;5086221;28;20080;-41
2021/01/06 02:42:35;;;;;;;2.85;2.22;;;10.30;79.10;;;;;;5084265;28;20031;-40
2021/01/06 02:45:03;;;;;;;3.10;1.70;;;10.30;79.10;;;;;;5100595;28;20097;-41
2021/01/06 02:47:29;;;;;;;2.80;2.05;;;10.30;79.20;;;;;;5100799;28;20052;-41
2021/01/06 02:49:55;;;;;;;2.92;2.08;;;10.30;79.00;;;;;;5112730;28;20049;-41
2021/01/06 02:52:55;;;;;;;2.03;1.67;;;10.30;79.10;;;;;;5124399;28;20034;-41
2021/01/06 02:55:21;;;;;;;3.22;1.95;;;10.20;79.00;;;;;;5124923;28;20035;-41
2021/01/06 02:57:48;;;;;;;2.78;2.10;;;10.20;79.00;;;;;;5124869;28;20048;-40
2021/01/06 03:00:20;;;;;;;2.67;2.15;;;10.20;79.10;;;;;;5115484;28;20028;-40
2021/01/06 03:02:46;;;;;;;2.08;1.88;;;10.20;79.00;;;;;;5105289;28;20032;-41
2021/01/06 03:05:38;;;;;;;2.28;2.08;;;10.20;79.10;;;;;;5104159;28;20051;-41
2021/01/06 03:08:05;;;;;;;2.72;2.03;;;10.20;79.10;;;;;;5104105;28;20036;-41
2021/01/06 03:10:31;;;;;;;2.25;2.05;;;10.20;79.10;;;;;;5105460;28;20032;-40
2021/01/06 03:12:57;;;;;;;2.30;2.08;;;10.10;79.10;;;;;;5105323;28;20036;-41
2021/01/06 03:15:25;;;;;;;2.10;1.90;;;10.10;79.10;;;;;;5104668;28;20032;-41
2021/01/06 03:17:52;;;;;;;2.28;2.08;;;10.10;79.00;;;;;;5087150;28;20048;-40
2021/01/06 03:20:39;;;;;;;2.35;1.88;;;10.10;79.10;;;;;;5119280;28;20052;-41
2021/01/06 03:23:17;;;;;;;2.03;1.83;;;10.10;79.10;;;;;;5123745;28;20496;-41
2021/01/06 03:25:44;;;;;;;3.33;2.22;;;10.10;79.20;;;;;;5124136;28;20055;-41
2021/01/06 03:28:11;;;;;;;1.95;1.83;;;10.10;79.20;;;;;;5124402;28;20048;-41
2021/01/06 03:30:37;;;;;;;2.53;2.13;;;10.00;79.00;;;;;;5111445;28;20032;-40
2021/01/06 03:33:12;;;;;;;2.17;1.88;;;10.00;79.10;;;;;;5104675;28;20032;-41
2021/01/06 03:35:55;;;;;;;2.50;1.92;;;10.00;79.00;;;;;;5103758;28;20036;-40
2021/01/06 03:38:35;;;;;;;2.10;1.90;;;10.00;79.00;;;;;;5103872;28;20060;-41
2021/01/06 03:41:01;;;;;;;2.35;1.90;;;10.00;79.10;;;;;;5103489;28;20057;-40
2021/01/06 03:43:29;;;;;;;2.33;1.97;;;9.90;79.00;;;;;;5103400;28;20031;-41
2021/01/06 03:46:01;;;;;;;2.33;2.13;;;9.90;79.00;;;;;;5103393;28;20284;-41
2021/01/06 03:48:34;;;;;;;2.38;2.10;;;9.90;79.10;;;;;;5103214;28;20040;-41
2021/01/06 03:51:26;;;;;;;2.50;2.13;;;9.90;79.20;;;;;;5123228;28;20069;-41
2021/01/06 03:53:54;;;;;;;2.50;2.30;;;9.90;79.10;;;;;;5122280;28;20043;-41
2021/01/06 03:56:24;;;;;;;2.50;2.20;;;9.90;79.10;;;;;;5123824;28;20033;-41
2021/01/06 03:58:55;;;;;;;2.35;2.15;;;9.90;79.10;;;;;;5106895;28;20119;-41
2021/01/06 04:01:58;;;;;;;2.40;2.20;;;9.80;79.00;;;;;;5104802;28;20020;-41
2021/01/06 04:04:37;;;;;;;2.13;1.92;;;9.80;79.10;;;;;;5104208;28;20028;-40
2021/01/06 04:07:03;;;;;;;2.97;2.00;;;9.80;79.00;;;;;;5105474;28;20063;-41
2021/01/06 04:09:41;;;;;;;2.30;2.10;;;9.80;79.10;;;;;;5086180;28;20050;-40
2021/01/06 04:12:13;;;;;;;2.42;2.22;;;9.80;79.10;;;;;;5102854;28;20508;-41
2021/01/06 04:14:40;;;;;;;2.83;1.98;;;9.80;79.10;;;;;;5104184;28;20031;-40
2021/01/06 04:17:28;;;;;;;2.50;2.30;;;9.70;79.00;;;;;;5104141;28;20024;-40
2021/01/06 04:20:09;;;;;;;2.45;2.22;;;9.80;79.10;;;;;;5113368;28;20051;-41
2021/01/06 04:22:44;;;;;;;2.17;1.90;;;9.70;79.00;;;;;;5120509;28;20032;-41
2021/01/06 04:25:26;;;;;;;2.55;2.13;;;9.70;79.10;;;;;;5124504;28;20751;-40
2021/01/06 04:28:04;;;;;;;3.47;2.30;;;9.70;79.10;;;;;;5124405;28;20043;-40
2021/01/06 04:30:36;;;;;;;3.03;2.30;;;9.70;79.20;;;;;;5112680;28;20020;-41
2021/01/06 04:33:05;;;;;;;2.30;2.10;;;9.70;79.20;;;;;;5102295;28;20032;-41
2021/01/06 04:35:32;;;;;;;2.65;2.25;;;9.60;79.20;;;;;;5104056;28;20050;-40
2021/01/06 04:37:58;;;;;;;2.28;2.08;;;9.60;79.10;;;;;;5103963;28;20020;-41
2021/01/06 04:40:26;;;;;;;3.58;2.42;;;9.60;79.10;;;;;;5103814;28;20062;-40
2021/01/06 04:42:57;;;;;;;3.72;2.20;;;9.60;79.10;;;;;;5103543;28;20031;-40
2021/01/06 04:45:23;;;;;;;2.50;2.28;;;9.60;79.10;;;;;;5103615;28;20034;-41
2021/01/06 04:48:25;;;;;;;2.70;2.45;;;9.60;79.20;;;;;;5102310;28;20032;-41
2021/01/06 04:51:09;;;;;;;2.60;2.10;;;9.50;79.20;;;;;;5105765;28;20031;-40
2021/01/06 04:53:51;;;;;;;2.75;2.17;;;9.50;79.20;;;;;;5103406;28;20704;-41
2021/01/06 04:56:45;;;;;;;2.20;2.00;;;9.50;79.20;;;;;;5102123;28;20027;-41
2021/01/06 04:59:33;;;;;;;2.38;2.17;;;9.50;79.20;;;;;;5101790;28;20078;-40
2021/01/06 05:02:31;;;;;;;2.58;2.33;;;9.50;79.20;;;;;;5083303;28;20024;-40
2021/01/06 05:05:20;;;;;;;2.65;2.35;;;9.50;79.20;;;;;;5110436;28;20130;-41
2021/01/06 05:07:56;;;;;;;2.78;1.90;;;9.40;79.10;;;;;;5062345;28;20523;-41
2021/01/06 05:10:34;;;;;;;2.50;2.30;;;9.40;79.20;;;;;;5082910;28;20039;-40
2021/01/06 05:13:26;;;;;;;2.50;2.30;;;9.40;79.20;;;;;;5082621;28;20029;-41
2021/01/06 05:16:11;;;;;;;3.05;2.42;;;9.40;79.20;;;;;;5082658;28;20064;-40
2021/01/06 05:18:38;;;;;;;2.20;2.00;;;9.40;79.20;;;;;;5082790;28;20032;-40
2021/01/06 05:21:10;;;;;;;2.45;2.25;;;9.40;79.20;;;;;;5156597;27;20024;-41
2021/01/06 05:23:37;;;;;;;2.50;2.30;;;9.30;79.20;;;;;;5122163;28;20824;-40
2021/01/06 05:26:03;;;;;;;2.92;1.92;;;9.30;79.20;;;;;;5105191;28;20081;-40
2021/01/06 05:28:29;;;;;;;2.63;2.38;;;9.30;79.20;;;;;;5122130;28;20047;-45
2021/01/06 05:30:56;;;;;;;2.58;2.20;;;9.30;79.20;;;;;;5090339;28;20088;-41
2021/01/06 05:33:35;;;;;;;3.00;2.47;;;9.30;79.20;;;;;;5082818;28;20040;-40
2021/01/06 05:36:02;;;;;;;2.60;2.40;;;9.30;79.20;;;;;;5082848;28;20751;-40
2021/01/06 05:38:28;;;;;;;2.47;2.17;;;9.30;79.20;;;;;;5082962;28;20033;-40
2021/01/06 05:40:54;;;;;;;2.13;1.92;;;9.20;79.20;;;;;;5082733;28;20043;-40
2021/01/06 05:43:20;;;;;;;3.72;2.00;;;9.20;79.20;;;;;;5082686;28;20033;-40
2021/01/06 05:45:54;;;;;;;2.50;2.17;;;9.20;79.20;;;;;;5082466;28;20825;-40
2021/01/06 05:48:30;;;;;;;2.33;2.13;;;9.20;79.20;;;;;;5097013;28;20040;-40
2021/01/06 05:51:07;;;;;;;2.78;2.40;;;9.20;79.30;;;;;;5121078;28;20372;-40
2021/01/06 05:53:41;;;;;;;2.40;2.20;;;9.20;79.20;;;;;;5117303;28;20577;-40
2021/01/06 05:56:20;;;;;;;2.67;2.17;;;9.20;79.30;;;;;;5101141;28;20550;-41
2021/01/06 05:58:48;;;;;;;2.60;2.20;;;9.10;79.30;;;;;;5102702;28;20028;-40
2021/01/06 06:01:33;;;;;;;3.20;2.65;;;9.10;79.20;;;;;;5084895;28;20024;-41
2021/01/06 06:04:07;;;;;;;3.00;2.70;;;9.10;79.30;;;;;;5102506;28;20035;-40
2021/01/06 06:06:54;;;;;;;2.63;2.35;;;9.10;79.30;;;;;;5101232;28;20447;-40
2021/01/06 06:09:48;;;;;;;2.60;2.40;;;9.10;79.30;;;;;;5102668;28;20044;-40
2021/01/06 06:12:23;;;;;;;2.75;2.50;;;9.10;79.30;;;;;;5102560;28;20024;-40
2021/01/06 06:15:09;;;;;;;3.55;2.58;;;9.10;79.30;;;;;;5102540;28;20051;-41
2021/01/06 06:17:44;;;;;;;2.97;2.55;;;9.00;79.20;;;;;;5102731;28;20024;-41
2021/01/06 06:20:48;;;;;;;3.25;2.30;;;9.00;79.20;;;;;;5113973;28;20024;-41
2021/01/06 06:23:39;;;;;;;5.40;2.30;;;9.00;79.20;;;;;;5113390;28;20042;-40
2021/01/06 06:26:18;;;;;;;2.47;2.28;;;9.00;79.20;;;;;;5124379;28;20043;-40
2021/01/06 06:29:10;;;;;;;2.95;2.60;;;9.00;79.30;;;;;;5122243;28;20045;-40
2021/01/06 06:31:37;;;;;;;2.80;2.40;;;8.90;79.30;;;;;;5104985;28;20028;-41
2021/01/06 06:34:05;;;;;;;2.53;2.33;;;8.90;79.20;;;;;;5104885;28;20051;-41
2021/01/06 06:36:34;;;;;;;2.42;2.22;;;8.90;79.30;;;;;;5104679;28;20393;-42
2021/01/06 06:39:31;;;;;;;4.20;2.70;;;8.90;79.30;;;;;;5105066;28;20127;-40
2021/01/06 06:42:24;;;;;;;3.53;2.50;;;8.90;79.30;;;;;;5098953;28;20048;-40
2021/01/06 06:44:59;;;;;;;3.25;2.60;;;8.90;79.30;;;;;;5094311;28;20092;-40
2021/01/06 06:47:47;;;;;;;3.42;2.40;;;8.80;79.30;;;;;;5104684;28;20100;-40
2021/01/06 06:50:34;;;;;;;3.88;2.78;;;8.80;79.30;;;;;;5119127;28;20095;-40
2021/01/06 06:53:14;;;;;;;3.22;2.60;;;8.80;79.30;;;;;;5110701;28;20023;-40
2021/01/06 06:55:49;;;;;;;2.60;2.40;;;8.80;79.30;;;;;;5124653;28;20023;-40
2021/01/06 06:58:26;;;;;;;3.38;2.70;;;8.80;79.40;;;;;;5124843;28;20055;-40
2021/01/06 07:00:52;;;;;;;2.80;2.40;;;8.80;79.40;;;;;;5110011;28;20032;-40
2021/01/06 07:03:25;;;;;;;2.72;2.20;;;8.80;79.40;;;;;;5105895;28;20027;-40
2021/01/06 07:05:56;;;;;;;2.72;2.35;;;8.80;79.40;;;;;;5104038;28;20088;-43
2021/01/06 07:08:30;;;;;;;2.58;2.20;;;8.70;79.30;;;;;;5104050;28;20032;-41
2021/01/06 07:11:03;;;;;;;3.42;2.53;;;8.70;79.30;;;;;;5104120;28;20016;-42
2021/01/06 07:13:30;;;;;;;2.70;2.50;;;8.70;79.40;;;;;;5103923;28;20035;-42
2021/01/06 07:16:01;;;;;;;3.40;2.60;;;8.70;79.30;;;;;;5104040;28;20050;-41
2021/01/06 07:18:42;;;;;;;2.55;2.35;;;8.70;79.30;;;;;;5104229;28;20032;-42
2021/01/06 07:21:16;;;;;;;2.88;2.58;;;8.70;79.30;;;;;;5085198;28;20029;-42
2021/01/06 07:24:10;;;;;;;2.97;2.45;;;8.70;79.40;;;;;;5085176;28;20032;-41
2021/01/06 07:26:43;;;;;;;3.30;2.72;;;8.60;79.40;;;;;;5084436;28;20104;-41
2021/01/06 07:29:12;;;;;;;2.60;2.35;;;8.60;79.30;;;;;;5085397;28;20067;-41
2021/01/06 07:32:01;;;;;;;3.83;2.78;;;8.60;79.40;;;;;;5096182;28;20028;-41
2021/01/06 07:34:51;;;;;;;3.22;2.67;;;8.60;79.50;;;;;;5084671;28;20031;-42
2021/01/06 07:37:34;;;;;;;3.28;2.53;;;8.60;79.40;;;;;;5091440;28;20043;-42
2021/01/06 07:40:04;;;;;;;3.50;2.65;;;8.60;79.40;;;;;;5105078;28;20079;-42
2021/01/06 07:42:39;;;;;;;2.50;2.30;;;8.50;79.30;;;;;;5103501;28;20032;-41
2021/01/06 07:45:24;;;;;;;3.20;2.35;;;8.50;79.30;;;;;;5103579;28;20024;-41
2021/01/06 07:48:11;;;;;;;3.67;2.70;;;8.50;79.40;;;;;;5104823;28;20385;-41
2021/01/06 07:50:37;;;;;;;4.15;2.65;;;8.50;79.40;;;;;;5119855;28;20027;-41
2021/01/06 07:53:11;;;;;;;2.95;2.65;;;8.50;79.40;;;;;;5123926;28;20605;-41
2021/01/06 07:55:45;;;;;;;3.45;2.70;;;8.50;79.40;;;;;;5090254;28;20049;-42
2021/01/06 07:58:16;;;;;;;3.58;2.90;;;8.50;79.40;;;;;;5123901;28;20035;-41
2021/01/06 08:01:06;;;;;;;3.53;2.70;;;8.50;79.40;;;;;;5110303;28;20024;-42
2021/01/06 08:03:44;;;;;;;3.88;2.65;;;8.50;79.50;;;;;;5103144;28;20271;-41
2021/01/06 08:06:10;;;;;;;;;;;8.40;79.50;;;;;;5098969;28;20033;-41
2021/01/06 08:08:47;;;;;;;3.00;2.60;;;8.40;79.40;;;;;;5084039;28;19923;-42
2021/01/06 08:11:15;;;;;;;3.33;2.60;;;8.40;79.50;;;;;;5082825;28;20138;-41
2021/01/06 08:13:47;;;;;;;3.25;2.58;;;8.40;79.50;;;;;;5084310;28;20099;-42
2021/01/06 08:16:29;;;;;;;2.70;2.47;;;8.40;79.50;;;;;;5102514;28;20016;-41
2021/01/06 08:18:55;;;;;;;3.55;2.67;;;8.40;79.50;;;;;;5106314;28;20027;-41
2021/01/06 08:21:46;;;;;;;4.57;3.05;;;8.40;79.50;;;;;;5124520;28;20032;-42
2021/01/06 08:24:22;;;;;;;3.53;2.70;;;8.30;79.50;;;;;;5108716;28;20028;-42
2021/01/06 08:26:55;;;;;;;3.83;2.65;;;8.30;79.50;;;;;;5122641;28;20105;-41
2021/01/06 08:29:28;;;;;;;4.72;2.85;;;8.30;79.60;;;;;;5124546;28;20042;-41
2021/01/06 08:32:18;;;;;;;3.15;2.83;;;8.30;79.60;;;;;;5124508;28;20028;-41
2021/01/06 08:34:57;;;;;;;4.65;2.88;;;8.30;79.60;;;;;;5124299;28;20041;-41
2021/01/06 08:37:29;;;;;;;3.60;2.63;;;8.20;79.50;;;;;;5102264;28;20028;-42
2021/01/06 08:39:56;;;;;;;3.65;2.97;;;8.20;79.40;;;;;;5102245;28;20028;-42
2021/01/06 08:42:40;;;;;;;4.55;2.97;;;8.20;79.50;;;;;;5103705;28;20027;-42
2021/01/06 08:45:07;;;;;;;3.42;2.90;;;8.20;79.50;;;;;;5102558;28;20043;-42
2021/01/06 08:47:35;;;;;;;3.35;2.83;;;8.20;79.60;;;;;;5085003;28;20040;-41
2021/01/06 08:50:16;;;;;;;3.22;2.60;;;8.20;79.50;;;;;;5114621;28;20043;-42
2021/01/06 08:52:53;;;;;;;3.47;2.78;;;8.20;79.60;;;;;;5124008;28;20488;-42
2021/01/06 08:55:31;;;;;;;4.30;2.90;;;8.20;79.50;;;;;;5123812;28;20034;-42
2021/01/06 08:58:00;;;;;;;4.05;3.20;;;8.10;79.50;;;;;;5123628;28;20046;-41
2021/01/06 09:00:44;;;;;;;4.35;3.17;;;8.20;79.60;;;;;;5112999;28;20031;-41
2021/01/06 09:03:29;;;;;;;3.28;2.67;;;8.10;79.60;;;;;;5103627;28;20028;-41
2021/01/06 09:06:11;;;;;;;4.32;2.97;;;8.10;79.60;;;;;;5099501;28;20085;-42
2021/01/06 09:08:54;;;;;;;3.22;2.80;;;8.10;79.60;;;;;;5082575;28;20170;-42
2021/01/06 09:11:26;;;;;;;3.20;2.88;;;8.10;79.60;;;;;;5081677;28;20028;-41
2021/01/06 09:14:31;;;;;;;4.55;3.30;;;8.10;79.60;;;;;;5081744;28;20035;-41
2021/01/06 09:17:01;;;;;;;3.55;3.03;;;8.10;79.60;;;;;;5081103;28;20041;-42
2021/01/06 09:19:45;;;;;;;3.65;3.28;;;8.00;79.60;;;;;;5094932;28;20024;-41
2021/01/06 09:22:12;;;;;;;3.92;3.08;;;8.00;79.60;;;;;;5123470;28;20035;-42
2021/01/06 09:24:39;;;;;;;4.35;3.28;;;8.00;79.60;;;;;;5105308;28;20028;-41
2021/01/06 09:27:06;;;;;;;;;;;8.00;80.30;;;;;;5122007;28;20103;-41
2021/01/06 09:29:36;;;;;;;4.30;2.92;;;8.00;80.10;;;;;;5121997;28;19904;-42
2021/01/06 09:32:09;;;;;;;3.97;2.83;;;8.00;79.70;;;;;;5105057;28;20049;-41
2021/01/06 09:34:46;;;;;;;3.42;2.85;;;7.90;79.60;;;;;;5105562;28;20049;-42
2021/01/06 09:37:19;;;;;;;;;;;7.90;79.60;;;;;;5105977;28;20023;-41
2021/01/06 09:39:45;;;;;;;3.28;2.72;;;7.90;79.60;;;;;;5121557;28;19908;-41
2021/01/06 09:42:12;;;;;;;4.13;3.28;;;7.90;79.60;;;;;;5065270;28;20094;-41
2021/01/06 09:44:38;;;;;;;3.80;3.30;;;7.90;79.60;;;;;;5101418;28;20119;-41
2021/01/06 09:47:08;;;;;;;3.75;2.50;;;7.90;79.70;;;;;;5101143;28;20043;-42
2021/01/06 09:49:43;;;;;;;4.72;3.22;;;7.90;79.70;;;;;;5088903;28;20126;-41
2021/01/06 09:52:23;;;;;;;3.90;2.97;;;7.80;79.60;;;;;;5101574;28;20028;-41
2021/01/06 09:54:50;;;;;;;3.50;2.67;;;7.80;79.60;;;;;;5085225;28;20054;-41
2021/01/06 09:57:17;;;;;;;;;;;7.80;79.60;;;;;;5101621;28;20040;-41
2021/01/06 09:59:43;;;;;;;3.80;3.15;;;7.80;79.70;;;;;;5102832;28;20360;-42
2021/01/06 10:02:12;;;;;;;3.45;2.70;;;7.80;79.60;;;;;;5105356;28;20039;-41
2021/01/06 10:04:40;;;;;;;3.67;2.88;;;7.80;79.70;;;;;;5106704;28;20024;-42
2021/01/06 10:07:44;;;;;;;3.25;2.78;;;7.80;79.60;;;;;;5105179;28;20043;-41
2021/01/06 10:10:20;;;;;;;4.00;2.97;;;7.80;79.70;;;;;;5110125;28;20019;-42
2021/01/06 10:13:26;;;;;;;3.58;3.03;;;7.80;79.70;;;;;;5105361;28;20066;-41
2021/01/06 10:16:01;;;;;;;3.40;2.75;;;7.80;79.70;;;;;;5031480;28;20033;-42
2021/01/06 10:18:42;;;;;;;4.07;2.70;;;7.70;79.70;;;;;;5043205;28;20041;-41
2021/01/06 10:21:36;;;;;;;3.50;2.60;;;7.70;79.70;;;;;;5023572;28;20053;-41
2021/01/06 10:24:09;;;;;;;4.13;3.08;;;7.70;79.70;;;;;;5040190;28;20064;-41
2021/01/06 10:27:00;;;;;;;4.05;2.90;;;7.70;79.70;;;;;;5039832;28;20066;-42
2021/01/06 10:29:29;;;;;;;4.07;3.05;;;7.70;79.80;;;;;;5057740;28;20030;-41
2021/01/06 10:31:58;;;;;;;4.55;3.10;;;7.70;79.70;;;;;;5043026;28;20063;-42
2021/01/06 10:34:33;;;;;;;5.18;3.30;;;7.60;79.70;;;;;;5043089;28;20607;-41
2021/01/06 10:37:06;;;;;;;4.50;3.13;;;7.60;79.80;;;;;;5043190;28;20070;-41
2021/01/06 10:39:40;;;;;;;4.25;3.00;;;7.60;79.70;;;;;;5042664;28;20025;-42
2021/01/06 10:42:21;;;;;;;3.53;2.67;;;7.60;79.80;;;;;;5040771;28;20072;-42
2021/01/06 10:45:06;;;;;;;4.28;3.17;;;7.60;79.80;;;;;;5042884;28;20049;-42
2021/01/06 10:47:32;;;;;;;4.20;3.25;;;7.60;79.80;;;;;;5042184;28;20040;-41
2021/01/06 10:50:23;;;;;;;3.70;2.78;;;7.60;79.90;;;;;;5042481;28;20033;-42
2021/01/06 10:53:17;;;;;;;3.55;3.20;;;7.60;79.90;;;;;;5105770;28;20027;-42
2021/01/06 10:55:48;;;;;;;5.25;3.38;;;7.50;79.80;;;;;;5105793;28;20054;-42
2021/01/06 10:58:24;;;;;;;4.38;3.35;;;7.50;79.80;;;;;;5104159;28;20063;-41
2021/01/06 11:01:10;;;;;;;3.90;2.80;;;7.50;79.90;;;;;;5104262;28;20032;-41
2021/01/06 11:03:47;;;;;;;3.78;2.95;;;7.50;79.80;;;;;;5104639;28;20090;-41
2021/01/06 11:06:36;;;;;;;5.30;3.58;;;7.50;79.90;;;;;;5100694;28;20036;-42
2021/01/06 11:09:34;;;;;;;4.30;3.40;;;7.50;79.90;;;;;;5084989;28;20040;-43
2021/01/06 11:12:12;;;;;;;4.43;3.00;;;7.50;79.90;;;;;;5082879;28;20036;-42
2021/01/06 11:14:59;;;;;;;4.00;3.30;;;7.50;79.90;;;;;;5085295;28;20036;-42
2021/01/06 11:17:31;;;;;;;3.65;2.88;;;7.40;79.80;;;;;;5085094;28;20061;-41
2021/01/06 11:19:59;;;;;;;3.53;2.63;;;7.40;79.90;;;;;;5106513;28;20031;-41
2021/01/06 11:22:32;;;;;;;4.35;3.05;;;7.40;79.90;;;;;;5124202;28;20091;-42
2021/01/06 11:25:01;;;;;;;4.55;3.25;;;7.40;79.90;;;;;;5125682;28;20212;-42
2021/01/06 11:27:49;;;;;;;3.90;3.13;;;7.40;79.90;;;;;;5125218;28;20056;-41
2021/01/06 11:30:38;;;;;;;4.05;3.03;;;7.40;79.90;;;;;;5125394;28;20170;-42
2021/01/06 11:33:18;;;;;;;3.67;2.67;;;7.30;79.90;;;;;;5125777;28;20046;-41
2021/01/06 11:36:14;;;;;;;3.40;2.97;;;7.30;80.00;;;;;;5124039;27;20024;-41
2021/01/06 11:38:40;;;;;;;3.28;2.60;;;7.30;80.00;;;;;;5103263;28;20031;-42
2021/01/06 11:41:07;;;;;;;3.88;3.20;;;7.30;80.00;;;;;;5105751;28;20026;-42
2021/01/06 11:43:50;;;;;;;4.00;3.08;;;7.30;80.00;;;;;;5066783;28;20024;-42
2021/01/06 11:46:26;;;;;;;4.00;2.97;;;7.30;80.00;;;;;;5083076;28;20497;-42
2021/01/06 11:49:17;;;;;;;4.00;3.08;;;7.30;80.10;;;;;;5088068;28;20036;-43
2021/01/06 11:52:21;;;;;;;4.50;3.13;;;7.20;79.90;;;;;;5109326;28;20028;-41
2021/01/06 11:55:13;;;;;;;4.72;3.42;;;7.20;80.00;;;;;;5084487;28;20024;-41
2021/01/06 11:58:13;;;;;;;4.32;3.22;;;7.20;80.00;;;;;;5077176;28;20044;-41
2021/01/06 12:00:39;;;;;;;4.05;3.20;;;7.20;80.00;;;;;;5097228;28;20058;-41
2021/01/06 12:03:08;;;;;;;4.25;3.10;;;7.20;79.90;;;;;;5104315;28;20028;-41
2021/01/06 12:05:59;;;;;;;4.43;3.28;;;7.20;80.00;;;;;;5104088;28;20028;-41
2021/01/06 12:08:57;;;;;;;4.35;3.30;;;7.20;80.00;;;;;;5082726;28;20047;-41
2021/01/06 12:11:31;;;;;;;3.92;2.90;;;7.10;80.00;;;;;;5082650;28;20029;-41
2021/01/06 12:14:22;;;;;;;3.75;3.20;;;7.10;80.00;;;;;;5082711;28;20056;-41
2021/01/06 12:17:09;;;;;;;3.45;2.97;;;7.10;80.10;;;;;;5082328;28;20056;-41
2021/01/06 12:19:57;;;;;;;4.18;3.47;;;7.10;80.10;;;;;;5097054;28;20019;-41
2021/01/06 12:22:23;;;;;;;4.13;2.92;;;7.10;80.10;;;;;;5083865;28;20029;-41
2021/01/06 12:25:29;;;;;;;4.73;3.53;;;7.10;80.10;;;;;;5083720;28;20041;-42
2021/01/06 12:28:01;;;;;;;3.53;2.97;;;7.00;80.00;;;;;;5068539;28;20352;-41
2021/01/06 12:30:35;;;;;;;4.18;2.88;;;7.00;80.10;;;;;;5104415;28;20601;-41
2021/01/06 12:33:19;;;;;;;3.53;2.90;;;7.00;80.00;;;;;;5106733;28;20035;-42
2021/01/06 12:35:46;;;;;;;4.30;3.28;;;7.00;80.10;;;;;;5122897;28;20095;-41
2021/01/06 12:38:30;;;;;;;5.22;3.25;;;7.00;80.10;;;;;;5102200;28;20039;-42
2021/01/06 12:40:56;;;;;;;4.13;3.20;;;7.00;80.20;;;;;;5103793;28;20043;-41
2021/01/06 12:43:27;;;;;;;3.65;3.03;;;7.00;80.20;;;;;;5104432;28;20080;-41
2021/01/06 12:46:00;;;;;;;4.50;3.15;;;7.00;80.20;;;;;;5085831;28;20028;-42
2021/01/06 12:48:28;;;;;;;4.10;3.33;;;6.90;80.10;;;;;;5103526;28;20032;-41
2021/01/06 12:51:16;;;;;;;4.72;3.20;;;7.00;80.20;;;;;;5121005;28;20061;-42
2021/01/06 12:53:53;;;;;;;3.83;2.90;;;6.90;80.20;;;;;;5106397;28;20042;-41
2021/01/06 12:56:36;;;;;;;5.03;3.13;;;6.90;80.20;;;;;;5123544;28;20024;-42
2021/01/06 12:59:22;;;;;;;3.85;2.85;;;6.90;80.20;;;;;;5089326;28;20028;-42
2021/01/06 13:01:50;;;;;;;5.22;3.70;;;6.90;80.20;;;;;;5082901;28;20084;-41
2021/01/06 13:04:19;;;;;;;4.28;3.13;;;6.90;80.20;;;;;;5081844;28;20028;-41
2021/01/06 13:06:59;;;;;;;3.97;3.30;;;6.90;80.20;;;;;;5091177;28;20023;-41
2021/01/06 13:09:42;;;;;;;3.83;2.97;;;6.90;80.20;;;;;;5101800;28;20080;-41
2021/01/06 13:12:11;;;;;;;5.13;3.33;;;6.90;80.20;;;;;;5103074;28;20020;-41
2021/01/06 13:15:12;;;;;;;3.88;3.20;;;6.80;80.10;;;;;;5103345;28;20039;-41
2021/01/06 13:17:39;;;;;;;4.88;3.50;;;6.80;80.10;;;;;;5101534;28;20038;-42
2021/01/06 13:20:14;;;;;;;4.78;3.20;;;6.80;80.20;;;;;;5113396;28;20592;-41
2021/01/06 13:22:43;;;;;;;4.85;3.60;;;6.80;80.20;;;;;;5123500;28;20031;-41
2021/01/06 13:25:29;;;;;;;4.03;3.17;;;6.80;80.90;;;;;;5123446;28;20069;-41
2021/01/06 13:28:10;;;;;;;5.78;3.75;;;6.80;80.30;;;;;;5121728;28;20070;-41
2021/01/06 13:30:46;;;;;;;3.97;2.83;;;6.80;80.20;;;;;;5110919;28;20024;-41
2021/01/06 13:33:30;;;;;;;3.80;2.92;;;6.80;80.30;;;;;;5102995;28;20016;-41
2021/01/06 13:36:00;;;;;;;5.47;3.47;;;6.70;80.20;;;;;;5099677;28;20046;-41
2021/01/06 13:38:36;;;;;;;4.65;3.40;;;6.70;80.20;;;;;;5102074;28;20493;-41